sensor_id;sensor_type;location;lat;lon;timestamp;pressure;altitude;pressure_sealevel;temperature;humidity
7768;BME280;3928;42.626;23.382;2023-03-24T00:01:03;94244.72;;;11.65;61.79
7768;BME280;3928;42.626;23.382;2023-03-24T00:03:32;94246.44;;;11.64;61.92
7768;BME280;3928;42.626;23.382;2023-03-24T00:06:02;94242.94;;;11.67;62.08
7768;BME280;3928;42.626;23.382;2023-03-24T00:08:31;94237.97;;;11.59;62.38
7768;BME280;3928;42.626;23.382;2023-03-24T00:11:01;94245.69;;;11.61;62.46
7768;BME280;3928;42.626;23.382;2023-03-24T00:13:29;94243.88;;;11.64;62.60
7768;BME280;3928;42.626;23.382;2023-03-24T00:15:56;94244.91;;;11.56;63.24
7768;BME280;3928;42.626;23.382;2023-03-24T00:18:24;94235.81;;;11.41;63.37
7768;BME280;3928;42.626;23.382;2023-03-24T00:20:53;94242.78;;;11.34;64.78
7768;BME280;3928;42.626;23.382;2023-03-24T00:23:23;94243.59;;;11.38;64.92
7768;BME280;3928;42.626;23.382;2023-03-24T00:25:58;94242.63;;;11.42;64.70
7768;BME280;3928;42.626;23.382;2023-03-24T00:28:27;94252.19;;;11.37;65.17
7768;BME280;3928;42.626;23.382;2023-03-24T00:30:54;94240.25;;;11.33;64.70
7768;BME280;3928;42.626;23.382;2023-03-24T00:33:21;94256.22;;;11.49;64.79
7768;BME280;3928;42.626;23.382;2023-03-24T00:35:48;94259.44;;;11.57;64.44
7768;BME280;3928;42.626;23.382;2023-03-24T00:38:16;94260.25;;;11.60;63.90
7768;BME280;3928;42.626;23.382;2023-03-24T00:40:44;94249.91;;;11.63;63.85
7768;BME280;3928;42.626;23.382;2023-03-24T00:43:13;94256.66;;;11.67;63.82
7768;BME280;3928;42.626;23.382;2023-03-24T00:45:40;94244.94;;;11.54;64.34
7768;BME280;3928;42.626;23.382;2023-03-24T00:48:10;94250.91;;;11.56;64.70
7768;BME280;3928;42.626;23.382;2023-03-24T00:50:37;94248.31;;;11.56;64.83
7768;BME280;3928;42.626;23.382;2023-03-24T00:53:04;94233.97;;;11.46;64.82
7768;BME280;3928;42.626;23.382;2023-03-24T00:55:33;94240.69;;;11.53;64.50
7768;BME280;3928;42.626;23.382;2023-03-24T00:58:02;94152.06;;;10.92;64.60
7768;BME280;3928;42.626;23.382;2023-03-24T01:00:29;94201.06;;;11.25;64.40
7768;BME280;3928;42.626;23.382;2023-03-24T01:02:57;94213.19;;;11.17;64.31
7768;BME280;3928;42.626;23.382;2023-03-24T01:05:26;94235.19;;;11.30;64.39
7768;BME280;3928;42.626;23.382;2023-03-24T01:07:55;94233.50;;;11.29;65.11
7768;BME280;3928;42.626;23.382;2023-03-24T01:10:23;94239.22;;;10.98;66.35
7768;BME280;3928;42.626;23.382;2023-03-24T01:12:54;94232.63;;;10.85;67.37
7768;BME280;3928;42.626;23.382;2023-03-24T01:15:24;94224.41;;;10.68;67.59
7768;BME280;3928;42.626;23.382;2023-03-24T01:17:51;94237.03;;;10.32;70.42
7768;BME280;3928;42.626;23.382;2023-03-24T01:20:20;94235.69;;;10.07;71.25
7768;BME280;3928;42.626;23.382;2023-03-24T01:22:48;94225.66;;;9.94;71.64
7768;BME280;3928;42.626;23.382;2023-03-24T01:25:16;94233.22;;;10.01;72.15
7768;BME280;3928;42.626;23.382;2023-03-24T01:27:45;94232.41;;;9.99;72.07
7768;BME280;3928;42.626;23.382;2023-03-24T01:30:15;94230.56;;;10.07;72.06
7768;BME280;3928;42.626;23.382;2023-03-24T01:32:42;94225.34;;;10.13;71.44
7768;BME280;3928;42.626;23.382;2023-03-24T01:35:09;94237.13;;;10.24;70.96
7768;BME280;3928;42.626;23.382;2023-03-24T01:37:37;94227.66;;;10.28;70.55
7768;BME280;3928;42.626;23.382;2023-03-24T01:40:05;94236.06;;;10.38;70.01
7768;BME280;3928;42.626;23.382;2023-03-24T01:42:33;94231.72;;;10.43;69.20
7768;BME280;3928;42.626;23.382;2023-03-24T01:45:32;94222.09;;;10.52;68.59
7768;BME280;3928;42.626;23.382;2023-03-24T01:47:49;94207.72;;;10.45;68.02
7768;BME280;3928;42.626;23.382;2023-03-24T01:50:16;94222.00;;;10.59;68.45
7768;BME280;3928;42.626;23.382;2023-03-24T01:52:43;94210.94;;;10.57;68.09
7768;BME280;3928;42.626;23.382;2023-03-24T01:55:12;94227.13;;;10.60;67.69
7768;BME280;3928;42.626;23.382;2023-03-24T01:57:45;94177.91;;;10.38;67.45
7768;BME280;3928;42.626;23.382;2023-03-24T02:00:15;94216.75;;;10.66;66.79
7768;BME280;3928;42.626;23.382;2023-03-24T02:02:44;94233.66;;;10.78;66.89
7768;BME280;3928;42.626;23.382;2023-03-24T02:05:15;94230.13;;;10.82;66.36
7768;BME280;3928;42.626;23.382;2023-03-24T02:07:49;94180.38;;;10.44;66.34
7768;BME280;3928;42.626;23.382;2023-03-24T02:10:19;94232.78;;;10.79;65.85
7768;BME280;3928;42.626;23.382;2023-03-24T02:12:47;94242.84;;;10.88;65.96
7768;BME280;3928;42.626;23.382;2023-03-24T02:15:17;94240.44;;;10.80;65.03
7768;BME280;3928;42.626;23.382;2023-03-24T02:18:00;94246.50;;;10.75;65.31
7768;BME280;3928;42.626;23.382;2023-03-24T02:20:58;94242.25;;;10.74;65.41
7768;BME280;3928;42.626;23.382;2023-03-24T02:23:53;94237.97;;;10.74;66.12
7768;BME280;3928;42.626;23.382;2023-03-24T02:26:40;94241.38;;;10.75;66.64
7768;BME280;3928;42.626;23.382;2023-03-24T02:35:31;94244.75;;;10.77;66.65
7768;BME280;3928;42.626;23.382;2023-03-24T02:38:30;94238.13;;;10.67;65.55
7768;BME280;3928;42.626;23.382;2023-03-24T02:41:09;94244.16;;;10.63;65.42
7768;BME280;3928;42.626;23.382;2023-03-24T02:43:45;94228.88;;;10.58;65.75
7768;BME280;3928;42.626;23.382;2023-03-24T02:46:20;94227.78;;;10.20;66.04
7768;BME280;3928;42.626;23.382;2023-03-24T02:49:01;94226.94;;;9.64;68.89
7768;BME280;3928;42.626;23.382;2023-03-24T02:51:38;94233.28;;;9.37;70.78
7768;BME280;3928;42.626;23.382;2023-03-24T02:54:08;94220.88;;;9.05;71.40
7768;BME280;3928;42.626;23.382;2023-03-24T02:56:43;94207.41;;;8.93;73.37
7768;BME280;3928;42.626;23.382;2023-03-24T02:59:17;94211.50;;;9.06;72.80
7768;BME280;3928;42.626;23.382;2023-03-24T03:01:48;94195.22;;;9.10;71.50
7768;BME280;3928;42.626;23.382;2023-03-24T03:04:26;94203.75;;;9.12;71.99
7768;BME280;3928;42.626;23.382;2023-03-24T03:06:59;94192.56;;;9.19;71.58
7768;BME280;3928;42.626;23.382;2023-03-24T03:09:32;94196.75;;;9.23;71.41
7768;BME280;3928;42.626;23.382;2023-03-24T03:12:03;94198.31;;;9.36;71.55
7768;BME280;3928;42.626;23.382;2023-03-24T03:14:34;94204.13;;;9.48;70.63
7768;BME280;3928;42.626;23.382;2023-03-24T03:17:05;94199.00;;;9.48;70.92
7768;BME280;3928;42.626;23.382;2023-03-24T03:19:37;94204.06;;;9.51;69.78
7768;BME280;3928;42.626;23.382;2023-03-24T03:22:07;94207.47;;;9.53;70.11
7768;BME280;3928;42.626;23.382;2023-03-24T03:24:40;94209.16;;;9.52;69.96
7768;BME280;3928;42.626;23.382;2023-03-24T03:27:12;94210.78;;;9.58;68.95
7768;BME280;3928;42.626;23.382;2023-03-24T03:29:45;94211.63;;;9.61;69.13
7768;BME280;3928;42.626;23.382;2023-03-24T03:32:19;94193.94;;;9.42;69.38
7768;BME280;3928;42.626;23.382;2023-03-24T03:34:52;94209.16;;;9.54;68.74
7768;BME280;3928;42.626;23.382;2023-03-24T03:37:25;94201.06;;;9.21;70.59
7768;BME280;3928;42.626;23.382;2023-03-24T03:39:55;94195.63;;;8.79;73.47
7768;BME280;3928;42.626;23.382;2023-03-24T03:42:25;94197.75;;;8.41;75.50
7768;BME280;3928;42.626;23.382;2023-03-24T03:44:52;94202.25;;;8.11;76.67
7768;BME280;3928;42.626;23.382;2023-03-24T03:47:19;94192.97;;;8.00;77.59
7768;BME280;3928;42.626;23.382;2023-03-24T03:49:47;94175.25;;;7.83;78.18
7768;BME280;3928;42.626;23.382;2023-03-24T03:52:15;94203.25;;;7.95;79.33
7768;BME280;3928;42.626;23.382;2023-03-24T03:54:43;94202.31;;;8.07;79.34
7768;BME280;3928;42.626;23.382;2023-03-24T03:57:10;94196.19;;;8.23;78.65
7768;BME280;3928;42.626;23.382;2023-03-24T03:59:40;94202.91;;;8.35;78.29
7768;BME280;3928;42.626;23.382;2023-03-24T04:02:18;94204.66;;;8.30;78.09
7768;BME280;3928;42.626;23.382;2023-03-24T04:07:55;94215.03;;;8.10;78.56
7768;BME280;3928;42.626;23.382;2023-03-24T04:10:32;94215.75;;;8.24;77.74
7768;BME280;3928;42.626;23.382;2023-03-24T04:13:15;94225.09;;;8.31;77.21
7768;BME280;3928;42.626;23.382;2023-03-24T04:15:50;94224.16;;;8.40;76.53
7768;BME280;3928;42.626;23.382;2023-03-24T04:18:36;94235.94;;;8.58;76.24
7768;BME280;3928;42.626;23.382;2023-03-24T04:21:17;94234.19;;;8.61;75.02
7768;BME280;3928;42.626;23.382;2023-03-24T04:23:58;94223.06;;;8.62;75.32
7768;BME280;3928;42.626;23.382;2023-03-24T04:26:33;94223.84;;;8.72;74.85
7768;BME280;3928;42.626;23.382;2023-03-24T04:29:10;94217.84;;;8.73;74.97
7768;BME280;3928;42.626;23.382;2023-03-24T04:31:48;94228.91;;;8.76;74.49
7768;BME280;3928;42.626;23.382;2023-03-24T04:34:19;94227.22;;;8.74;75.11
7768;BME280;3928;42.626;23.382;2023-03-24T04:36:50;94220.38;;;8.74;74.51
7768;BME280;3928;42.626;23.382;2023-03-24T04:39:21;94227.19;;;8.78;75.04
7768;BME280;3928;42.626;23.382;2023-03-24T04:41:53;94233.06;;;8.85;74.57
7768;BME280;3928;42.626;23.382;2023-03-24T04:44:21;94234.22;;;8.58;75.44
7768;BME280;3928;42.626;23.382;2023-03-24T04:46:52;94240.97;;;8.65;75.54
7768;BME280;3928;42.626;23.382;2023-03-24T04:49:20;94242.66;;;8.68;75.17
7768;BME280;3928;42.626;23.382;2023-03-24T04:51:49;94241.84;;;8.64;74.40
7768;BME280;3928;42.626;23.382;2023-03-24T04:54:16;94239.44;;;8.47;76.00
7768;BME280;3928;42.626;23.382;2023-03-24T04:56:44;94247.13;;;8.46;75.75
7768;BME280;3928;42.626;23.382;2023-03-24T04:59:12;94250.50;;;8.48;76.27
7768;BME280;3928;42.626;23.382;2023-03-24T05:01:39;94246.22;;;8.53;76.01
7768;BME280;3928;42.626;23.382;2023-03-24T05:04:15;94251.22;;;8.65;75.60
7768;BME280;3928;42.626;23.382;2023-03-24T05:06:42;94259.63;;;8.73;75.44
7768;BME280;3928;42.626;23.382;2023-03-24T05:09:11;94237.50;;;8.71;75.07
7768;BME280;3928;42.626;23.382;2023-03-24T05:11:38;94266.28;;;8.90;74.87
7768;BME280;3928;42.626;23.382;2023-03-24T05:14:05;94260.31;;;8.88;75.00
7768;BME280;3928;42.626;23.382;2023-03-24T05:16:32;94258.78;;;8.73;75.20
7768;BME280;3928;42.626;23.382;2023-03-24T05:18:59;94259.72;;;8.67;76.25
7768;BME280;3928;42.626;23.382;2023-03-24T05:21:27;94265.59;;;8.77;76.22
7768;BME280;3928;42.626;23.382;2023-03-24T05:23:54;94273.38;;;8.63;75.69
7768;BME280;3928;42.626;23.382;2023-03-24T05:26:21;94264.88;;;8.61;76.20
7768;BME280;3928;42.626;23.382;2023-03-24T05:28:48;94249.59;;;8.52;77.21
7768;BME280;3928;42.626;23.382;2023-03-24T05:31:15;94269.16;;;8.59;77.64
7768;BME280;3928;42.626;23.382;2023-03-24T05:33:41;94269.97;;;8.64;76.99
7768;BME280;3928;42.626;23.382;2023-03-24T05:36:09;94270.72;;;8.74;76.87
7768;BME280;3928;42.626;23.382;2023-03-24T05:38:38;94273.91;;;8.94;75.68
7768;BME280;3928;42.626;23.382;2023-03-24T05:41:06;94268.78;;;8.96;75.69
7768;BME280;3928;42.626;23.382;2023-03-24T05:43:32;94278.00;;;9.12;74.62
7768;BME280;3928;42.626;23.382;2023-03-24T05:45:59;94255.63;;;9.26;75.18
7768;BME280;3928;42.626;23.382;2023-03-24T05:48:26;94244.25;;;9.49;76.13
7768;BME280;3928;42.626;23.382;2023-03-24T05:50:53;94266.50;;;10.04;79.43
7768;BME280;3928;42.626;23.382;2023-03-24T05:53:20;94261.13;;;10.20;72.89
7768;BME280;3928;42.626;23.382;2023-03-24T05:55:48;94263.41;;;10.39;71.86
7768;BME280;3928;42.626;23.382;2023-03-24T05:58:18;94257.16;;;10.55;70.86
7768;BME280;3928;42.626;23.382;2023-03-24T06:00:46;94258.91;;;10.51;69.82
7768;BME280;3928;42.626;23.382;2023-03-24T06:03:13;94272.47;;;10.60;72.18
7768;BME280;3928;42.626;23.382;2023-03-24T06:05:41;94269.81;;;11.10;77.99
7768;BME280;3928;42.626;23.382;2023-03-24T06:08:10;94267.81;;;11.66;74.03
7768;BME280;3928;42.626;23.382;2023-03-24T06:10:37;94273.41;;;12.24;71.94
7768;BME280;3928;42.626;23.382;2023-03-24T06:13:06;94284.38;;;12.68;68.08
7768;BME280;3928;42.626;23.382;2023-03-24T06:15:33;94270.50;;;13.06;64.22
7768;BME280;3928;42.626;23.382;2023-03-24T06:18:18;94275.50;;;13.43;59.56
7768;BME280;3928;42.626;23.382;2023-03-24T06:20:46;94270.16;;;13.18;59.22
7768;BME280;3928;42.626;23.382;2023-03-24T06:23:15;94275.56;;;13.09;62.73
7768;BME280;3928;42.626;23.382;2023-03-24T06:25:41;94278.78;;;13.17;59.63
7768;BME280;3928;42.626;23.382;2023-03-24T06:28:10;94265.25;;;13.41;62.49
7768;BME280;3928;42.626;23.382;2023-03-24T06:30:38;94278.72;;;13.81;61.40
7768;BME280;3928;42.626;23.382;2023-03-24T06:33:05;94273.22;;;14.19;62.18
7768;BME280;3928;42.626;23.382;2023-03-24T06:35:32;94262.72;;;14.53;57.63
7768;BME280;3928;42.626;23.382;2023-03-24T06:37:58;94276.94;;;14.91;58.07
7768;BME280;3928;42.626;23.382;2023-03-24T06:40:25;94265.72;;;15.17;56.22
7768;BME280;3928;42.626;23.382;2023-03-24T06:42:52;94270.13;;;15.15;53.65
7768;BME280;3928;42.626;23.382;2023-03-24T06:45:20;94282.91;;;15.18;56.36
7768;BME280;3928;42.626;23.382;2023-03-24T06:47:47;94275.72;;;15.02;55.56
7768;BME280;3928;42.626;23.382;2023-03-24T06:50:14;94280.03;;;15.28;55.72
7768;BME280;3928;42.626;23.382;2023-03-24T06:52:41;94278.06;;;15.58;54.78
7768;BME280;3928;42.626;23.382;2023-03-24T06:55:08;94280.50;;;15.86;52.20
7768;BME280;3928;42.626;23.382;2023-03-24T06:57:35;94276.41;;;16.03;51.97
7768;BME280;3928;42.626;23.382;2023-03-24T07:00:02;94278.16;;;16.25;51.40
7768;BME280;3928;42.626;23.382;2023-03-24T07:02:31;94288.53;;;16.47;49.75
7768;BME280;3928;42.626;23.382;2023-03-24T07:05:00;94289.25;;;16.72;50.57
7768;BME280;3928;42.626;23.382;2023-03-24T07:07:30;94288.69;;;16.64;47.62
7768;BME280;3928;42.626;23.382;2023-03-24T07:09:57;94293.31;;;16.56;47.79
7768;BME280;3928;42.626;23.382;2023-03-24T07:12:24;94301.03;;;16.57;49.47
7768;BME280;3928;42.626;23.382;2023-03-24T07:14:51;94299.94;;;16.63;47.87
7768;BME280;3928;42.626;23.382;2023-03-24T07:17:18;94295.50;;;16.88;49.51
7768;BME280;3928;42.626;23.382;2023-03-24T07:19:46;94301.16;;;17.18;47.08
7768;BME280;3928;42.626;23.382;2023-03-24T07:22:12;94296.53;;;17.45;47.10
7768;BME280;3928;42.626;23.382;2023-03-24T07:24:39;94276.63;;;17.46;46.01
7768;BME280;3928;42.626;23.382;2023-03-24T07:27:06;94303.66;;;17.81;45.21
7768;BME280;3928;42.626;23.382;2023-03-24T07:29:33;94303.59;;;18.01;44.96
7768;BME280;3928;42.626;23.382;2023-03-24T07:32:00;94302.66;;;18.21;43.89
7768;BME280;3928;42.626;23.382;2023-03-24T07:34:28;94298.31;;;18.40;43.91
7768;BME280;3928;42.626;23.382;2023-03-24T07:36:56;94298.50;;;18.55;43.19
7768;BME280;3928;42.626;23.382;2023-03-24T07:39:23;94303.97;;;18.67;42.48
7768;BME280;3928;42.626;23.382;2023-03-24T07:41:50;94285.63;;;18.70;41.82
7768;BME280;3928;42.626;23.382;2023-03-24T07:44:17;94294.22;;;18.73;41.93
7768;BME280;3928;42.626;23.382;2023-03-24T07:46:44;94289.63;;;18.78;42.12
7768;BME280;3928;42.626;23.382;2023-03-24T07:49:11;94295.31;;;19.03;42.02
7768;BME280;3928;42.626;23.382;2023-03-24T07:51:37;94288.09;;;19.25;42.34
7768;BME280;3928;42.626;23.382;2023-03-24T07:54:06;94283.66;;;19.27;42.29
7768;BME280;3928;42.626;23.382;2023-03-24T07:56:33;94293.91;;;19.48;42.14
7768;BME280;3928;42.626;23.382;2023-03-24T07:58:59;94292.66;;;19.72;40.99
7768;BME280;3928;42.626;23.382;2023-03-24T08:01:26;94288.00;;;19.95;40.48
7768;BME280;3928;42.626;23.382;2023-03-24T08:03:53;94275.69;;;20.14;40.40
7768;BME280;3928;42.626;23.382;2023-03-24T08:06:20;94279.31;;;20.27;39.76
7768;BME280;3928;42.626;23.382;2023-03-24T08:08:47;94273.09;;;20.46;39.37
7768;BME280;3928;42.626;23.382;2023-03-24T08:11:15;94272.94;;;20.64;39.00
7768;BME280;3928;42.626;23.382;2023-03-24T08:13:42;94243.88;;;20.70;38.76
7768;BME280;3928;42.626;23.382;2023-03-24T08:16:08;94268.88;;;21.05;37.83
7768;BME280;3928;42.626;23.382;2023-03-24T08:18:35;94269.09;;;21.16;38.53
7768;BME280;3928;42.626;23.382;2023-03-24T08:21:02;94263.28;;;21.26;37.99
7768;BME280;3928;42.626;23.382;2023-03-24T08:23:29;94256.31;;;21.41;37.10
7768;BME280;3928;42.626;23.382;2023-03-24T08:25:56;94255.25;;;21.29;38.05
7768;BME280;3928;42.626;23.382;2023-03-24T08:28:24;94260.78;;;21.39;37.78
7768;BME280;3928;42.626;23.382;2023-03-24T08:30:51;94251.84;;;21.43;37.54
7768;BME280;3928;42.626;23.382;2023-03-24T08:33:18;94257.78;;;21.31;37.81
7768;BME280;3928;42.626;23.382;2023-03-24T08:35:45;94262.13;;;21.46;38.03
7768;BME280;3928;42.626;23.382;2023-03-24T08:38:12;94249.72;;;21.64;37.42
7768;BME280;3928;42.626;23.382;2023-03-24T08:40:41;94253.09;;;21.80;37.42
7768;BME280;3928;42.626;23.382;2023-03-24T08:43:12;94256.81;;;22.05;36.51
7768;BME280;3928;42.626;23.382;2023-03-24T08:45:41;94237.09;;;22.13;36.70
7768;BME280;3928;42.626;23.382;2023-03-24T08:48:08;94241.13;;;22.19;36.51
7768;BME280;3928;42.626;23.382;2023-03-24T08:50:37;94231.81;;;22.42;36.03
7768;BME280;3928;42.626;23.382;2023-03-24T08:53:05;94228.78;;;22.62;35.35
7768;BME280;3928;42.626;23.382;2023-03-24T08:55:32;94227.38;;;22.84;35.03
7768;BME280;3928;42.626;23.382;2023-03-24T08:58:01;94224.50;;;23.01;34.22
7768;BME280;3928;42.626;23.382;2023-03-24T09:00:28;94216.56;;;23.15;35.46
7768;BME280;3928;42.626;23.382;2023-03-24T09:02:57;94219.31;;;23.39;33.99
7768;BME280;3928;42.626;23.382;2023-03-24T09:05:25;94212.41;;;23.25;33.60
7768;BME280;3928;42.626;23.382;2023-03-24T09:07:52;94212.28;;;23.27;33.06
7768;BME280;3928;42.626;23.382;2023-03-24T09:10:20;94215.53;;;23.18;34.41
7768;BME280;3928;42.626;23.382;2023-03-24T09:12:48;94209.28;;;23.33;34.18
7768;BME280;3928;42.626;23.382;2023-03-24T09:15:15;94211.69;;;23.61;32.95
7768;BME280;3928;42.626;23.382;2023-03-24T09:17:42;94204.03;;;23.84;32.79
7768;BME280;3928;42.626;23.382;2023-03-24T09:20:12;94200.53;;;24.09;32.24
7768;BME280;3928;42.626;23.382;2023-03-24T09:22:41;94121.06;;;23.59;32.26
7768;BME280;3928;42.626;23.382;2023-03-24T09:25:10;94192.63;;;24.21;32.72
7768;BME280;3928;42.626;23.382;2023-03-24T09:27:37;94200.75;;;24.42;32.84
7768;BME280;3928;42.626;23.382;2023-03-24T09:30:06;94196.34;;;24.67;31.96
7768;BME280;3928;42.626;23.382;2023-03-24T09:32:34;94194.19;;;24.96;31.16
7768;BME280;3928;42.626;23.382;2023-03-24T09:35:01;94191.31;;;25.23;30.26
7768;BME280;3928;42.626;23.382;2023-03-24T09:37:30;94197.47;;;25.46;30.31
7768;BME280;3928;42.626;23.382;2023-03-24T09:39:57;94190.66;;;25.65;29.33
7768;BME280;3928;42.626;23.382;2023-03-24T09:42:28;94187.34;;;25.75;28.61
7768;BME280;3928;42.626;23.382;2023-03-24T09:44:57;94188.63;;;25.47;29.33
7768;BME280;3928;42.626;23.382;2023-03-24T09:47:27;94170.69;;;25.52;29.71
7768;BME280;3928;42.626;23.382;2023-03-24T09:49:59;94178.97;;;25.92;29.78
7768;BME280;3928;42.626;23.382;2023-03-24T09:52:32;94163.84;;;26.28;29.46
7768;BME280;3928;42.626;23.382;2023-03-24T09:55:00;94166.19;;;26.64;28.49
7768;BME280;3928;42.626;23.382;2023-03-24T09:57:33;94157.81;;;26.91;28.19
7768;BME280;3928;42.626;23.382;2023-03-24T10:00:14;94157.16;;;26.78;28.50
7768;BME280;3928;42.626;23.382;2023-03-24T10:02:41;94152.38;;;27.04;28.03
7768;BME280;3928;42.626;23.382;2023-03-24T10:05:12;94148.13;;;27.33;27.72
7768;BME280;3928;42.626;23.382;2023-03-24T10:07:44;94146.50;;;27.63;27.24
7768;BME280;3928;42.626;23.382;2023-03-24T10:10:21;94150.69;;;27.65;27.66
7768;BME280;3928;42.626;23.382;2023-03-24T10:12:57;94148.44;;;27.91;27.61
7768;BME280;3928;42.626;23.382;2023-03-24T10:15:31;94124.69;;;27.91;26.94
7768;BME280;3928;42.626;23.382;2023-03-24T10:18:16;94132.69;;;28.20;25.53
7768;BME280;3928;42.626;23.382;2023-03-24T10:20:48;94139.03;;;28.58;25.07
7768;BME280;3928;42.626;23.382;2023-03-24T10:23:25;94138.75;;;28.71;25.03
7768;BME280;3928;42.626;23.382;2023-03-24T10:25:55;94134.75;;;28.67;24.01
7768;BME280;3928;42.626;23.382;2023-03-24T10:28:29;94137.31;;;28.28;24.59
7768;BME280;3928;42.626;23.382;2023-03-24T10:31:02;94132.22;;;28.06;24.59
7768;BME280;3928;42.626;23.382;2023-03-24T10:33:30;94134.09;;;28.24;25.16
7768;BME280;3928;42.626;23.382;2023-03-24T10:36:01;94134.56;;;28.39;24.32
7768;BME280;3928;42.626;23.382;2023-03-24T10:38:31;94132.38;;;28.54;23.93
7768;BME280;3928;42.626;23.382;2023-03-24T10:40:59;94134.84;;;28.75;24.12
7768;BME280;3928;42.626;23.382;2023-03-24T10:43:26;94130.28;;;28.96;23.27
7768;BME280;3928;42.626;23.382;2023-03-24T10:45:55;94131.38;;;29.23;22.90
7768;BME280;3928;42.626;23.382;2023-03-24T10:48:35;94121.53;;;29.05;22.98
7768;BME280;3928;42.626;23.382;2023-03-24T10:51:06;94119.28;;;29.10;22.24
7768;BME280;3928;42.626;23.382;2023-03-24T10:53:35;94122.22;;;28.69;22.92
7768;BME280;3928;42.626;23.382;2023-03-24T10:56:02;94118.31;;;28.82;24.42
7768;BME280;3928;42.626;23.382;2023-03-24T10:58:34;94116.69;;;28.91;23.59
7768;BME280;3928;42.626;23.382;2023-03-24T11:01:02;94116.09;;;28.97;23.27
7768;BME280;3928;42.626;23.382;2023-03-24T11:03:31;94110.66;;;29.08;23.15
7768;BME280;3928;42.626;23.382;2023-03-24T11:06:01;94102.72;;;29.28;23.68
7768;BME280;3928;42.626;23.382;2023-03-24T11:08:33;94101.88;;;29.37;23.42
7768;BME280;3928;42.626;23.382;2023-03-24T11:11:12;94104.09;;;29.32;23.60
7768;BME280;3928;42.626;23.382;2023-03-24T11:13:40;94101.66;;;29.58;23.91
7768;BME280;3928;42.626;23.382;2023-03-24T11:16:10;94104.78;;;29.81;22.99
7768;BME280;3928;42.626;23.382;2023-03-24T11:18:54;94084.41;;;29.91;22.64
7768;BME280;3928;42.626;23.382;2023-03-24T11:21:21;94086.47;;;30.24;22.62
7768;BME280;3928;42.626;23.382;2023-03-24T11:23:48;94086.97;;;30.10;22.47
7768;BME280;3928;42.626;23.382;2023-03-24T11:26:18;94083.91;;;30.33;22.46
7768;BME280;3928;42.626;23.382;2023-03-24T11:28:50;94073.47;;;30.49;21.83
7768;BME280;3928;42.626;23.382;2023-03-24T11:31:21;94071.28;;;30.44;21.95
7768;BME280;3928;42.626;23.382;2023-03-24T11:33:57;94052.88;;;30.43;21.90
7768;BME280;3928;42.626;23.382;2023-03-24T11:36:42;94071.38;;;30.70;21.75
7768;BME280;3928;42.626;23.382;2023-03-24T11:39:13;94062.44;;;30.71;21.25
7768;BME280;3928;42.626;23.382;2023-03-24T11:41:43;94046.84;;;30.33;21.72
7768;BME280;3928;42.626;23.382;2023-03-24T11:44:18;94065.06;;;30.36;21.02
7768;BME280;3928;42.626;23.382;2023-03-24T11:46:47;94063.97;;;30.11;21.90
7768;BME280;3928;42.626;23.382;2023-03-24T11:49:18;94072.69;;;30.39;21.55
7768;BME280;3928;42.626;23.382;2023-03-24T11:51:49;94060.09;;;30.68;20.84
7768;BME280;3928;42.626;23.382;2023-03-24T11:54:19;94047.00;;;30.67;20.34
7768;BME280;3928;42.626;23.382;2023-03-24T11:56:50;94049.69;;;30.93;20.93
7768;BME280;3928;42.626;23.382;2023-03-24T11:59:26;94042.50;;;31.11;20.12
7768;BME280;3928;42.626;23.382;2023-03-24T12:02:00;94044.16;;;31.12;19.85
7768;BME280;3928;42.626;23.382;2023-03-24T12:04:41;94031.09;;;30.31;20.32
7768;BME280;3928;42.626;23.382;2023-03-24T12:07:50;94033.72;;;30.49;21.14
7768;BME280;3928;42.626;23.382;2023-03-24T12:10:29;94015.16;;;30.84;20.29
7768;BME280;3928;42.626;23.382;2023-03-24T12:13:05;94033.56;;;31.30;20.31
7768;BME280;3928;42.626;23.382;2023-03-24T12:15:42;94028.88;;;31.58;20.35
7768;BME280;3928;42.626;23.382;2023-03-24T12:18:35;94017.91;;;31.87;20.03
7768;BME280;3928;42.626;23.382;2023-03-24T12:21:11;93997.19;;;31.90;19.30
7768;BME280;3928;42.626;23.382;2023-03-24T12:23:51;94015.44;;;31.59;19.56
7768;BME280;3928;42.626;23.382;2023-03-24T12:26:22;94011.75;;;31.18;20.17
7768;BME280;3928;42.626;23.382;2023-03-24T12:29:12;94011.13;;;30.98;20.02
7768;BME280;3928;42.626;23.382;2023-03-24T12:31:53;94004.00;;;30.99;19.59
7768;BME280;3928;42.626;23.382;2023-03-24T12:34:43;94005.22;;;30.78;20.38
7768;BME280;3928;42.626;23.382;2023-03-24T12:37:21;93999.38;;;31.01;21.13
7768;BME280;3928;42.626;23.382;2023-03-24T12:40:02;93984.34;;;31.35;19.79
7768;BME280;3928;42.626;23.382;2023-03-24T12:42:38;93987.09;;;31.60;19.85
7768;BME280;3928;42.626;23.382;2023-03-24T12:45:24;93922.03;;;31.31;19.49
7768;BME280;3928;42.626;23.382;2023-03-24T12:48:02;93930.06;;;31.56;19.41
7768;BME280;3928;42.626;23.382;2023-03-24T12:50:43;93973.69;;;32.12;18.87
7768;BME280;3928;42.626;23.382;2023-03-24T12:53:34;93974.72;;;32.43;19.17
7768;BME280;3928;42.626;23.382;2023-03-24T12:56:10;93977.06;;;32.71;18.81
7768;BME280;3928;42.626;23.382;2023-03-24T12:58:41;93973.38;;;32.96;18.19
7768;BME280;3928;42.626;23.382;2023-03-24T13:01:17;93962.53;;;33.14;18.31
7768;BME280;3928;42.626;23.382;2023-03-24T13:03:47;93964.34;;;33.22;17.63
7768;BME280;3928;42.626;23.382;2023-03-24T13:06:19;93954.41;;;33.07;17.80
7768;BME280;3928;42.626;23.382;2023-03-24T13:09:09;93945.47;;;32.76;17.73
7768;BME280;3928;42.626;23.382;2023-03-24T13:11:45;93953.78;;;32.73;18.58
7768;BME280;3928;42.626;23.382;2023-03-24T13:14:18;93953.78;;;32.65;17.88
7768;BME280;3928;42.626;23.382;2023-03-24T13:16:49;93949.25;;;32.08;18.67
7768;BME280;3928;42.626;23.382;2023-03-24T13:19:21;93946.44;;;31.85;18.56
7768;BME280;3928;42.626;23.382;2023-03-24T13:21:51;93950.31;;;31.65;19.11
7768;BME280;3928;42.626;23.382;2023-03-24T13:24:20;93951.88;;;31.76;19.52
7768;BME280;3928;42.626;23.382;2023-03-24T13:26:54;93933.16;;;31.85;18.52
7768;BME280;3928;42.626;23.382;2023-03-24T13:30:01;93937.25;;;31.29;18.89
7768;BME280;3928;42.626;23.382;2023-03-24T13:32:34;93941.72;;;30.69;19.68
7768;BME280;3928;42.626;23.382;2023-03-24T13:35:09;93935.16;;;30.55;19.32
7768;BME280;3928;42.626;23.382;2023-03-24T13:37:39;93932.56;;;30.63;19.91
7768;BME280;3928;42.626;23.382;2023-03-24T13:40:14;93937.66;;;30.82;19.45
7768;BME280;3928;42.626;23.382;2023-03-24T13:42:46;93929.19;;;31.13;19.01